createdAt,value
2018-03-12T00:02:20.293Z,2.40
2018-03-12T00:04:47.817Z,2.50
2018-03-12T00:07:15.349Z,2.37
2018-03-12T00:09:43.634Z,2.90
2018-03-12T00:12:11.938Z,2.60
2018-03-12T00:14:39.454Z,2.50
2018-03-12T00:17:07.066Z,2.50
2018-03-12T00:19:34.578Z,2.40
2018-03-12T00:22:02.111Z,2.50
2018-03-12T00:24:29.622Z,3.00
2018-03-12T00:26:58.026Z,2.23
2018-03-12T00:29:25.537Z,1.77
2018-03-12T00:31:53.078Z,2.47
2018-03-12T00:34:20.590Z,2.50
2018-03-12T00:36:48.102Z,2.77
2018-03-12T00:39:15.638Z,2.70
2018-03-12T00:41:43.158Z,2.43
2018-03-12T00:44:11.455Z,2.10
2018-03-12T00:46:39.030Z,2.03
2018-03-12T00:49:06.570Z,1.87
2018-03-12T00:51:34.080Z,2.07
2018-03-12T00:54:01.722Z,1.90
2018-03-12T00:56:29.277Z,2.07
2018-03-12T00:58:56.811Z,2.17
2018-03-12T01:01:24.401Z,2.50
2018-03-12T01:03:51.953Z,2.10
2018-03-12T01:06:19.466Z,2.00
2018-03-12T01:08:47.021Z,2.13
2018-03-12T01:11:14.642Z,2.70
2018-03-12T01:13:42.158Z,2.70
2018-03-12T01:16:10.468Z,3.27
2018-03-12T01:18:37.991Z,2.40
2018-03-12T01:21:05.532Z,1.83
2018-03-12T01:23:33.058Z,2.00
2018-03-12T01:26:00.596Z,2.27
2018-03-12T01:28:28.570Z,2.00
2018-03-12T01:30:56.110Z,1.70
2018-03-12T01:33:23.717Z,1.60
2018-03-12T01:35:51.260Z,2.13
2018-03-12T01:38:18.778Z,2.00
2018-03-12T01:40:46.397Z,2.20
2018-03-12T01:43:13.909Z,2.10
2018-03-12T01:45:41.445Z,2.00
2018-03-12T01:48:08.978Z,2.10
2018-03-12T01:50:36.509Z,2.60
2018-03-12T01:53:06.766Z,2.83
2018-03-12T01:55:34.306Z,2.93
2018-03-12T01:58:01.825Z,2.37
2018-03-12T02:00:29.385Z,1.97
2018-03-12T02:02:56.902Z,3.10
2018-03-12T02:05:24.420Z,2.40
2018-03-12T02:07:51.951Z,2.13
2018-03-12T02:10:19.498Z,3.10
2018-03-12T02:12:47.030Z,2.80
2018-03-12T02:15:15.306Z,2.50
2018-03-12T02:17:43.602Z,2.50
2018-03-12T02:20:11.122Z,2.20
2018-03-12T02:22:38.739Z,2.40
2018-03-12T02:25:06.248Z,2.70
2018-03-12T02:27:34.551Z,1.80
2018-03-12T02:30:02.082Z,2.37
2018-03-12T02:32:29.620Z,2.40
2018-03-12T02:34:57.137Z,2.23
2018-03-12T02:37:24.714Z,1.80
2018-03-12T02:39:52.230Z,2.10
2018-03-12T02:42:19.777Z,2.13
2018-03-12T02:44:47.412Z,1.90
2018-03-12T02:47:14.966Z,3.60
2018-03-12T02:49:42.503Z,2.80
2018-03-12T02:52:10.018Z,2.30
2018-03-12T02:54:37.651Z,1.97
2018-03-12T02:57:05.214Z,2.20
2018-03-12T02:59:32.745Z,2.20
2018-03-12T03:02:01.027Z,2.27
2018-03-12T03:04:28.566Z,2.60
2018-03-12T03:06:56.080Z,2.27
2018-03-12T03:09:23.634Z,2.30
2018-03-12T03:11:51.149Z,2.40
2018-03-12T03:14:18.682Z,2.83
2018-03-12T03:16:46.194Z,2.50
2018-03-12T03:19:13.730Z,2.00
2018-03-12T03:21:42.010Z,2.40
2018-03-12T03:24:10.318Z,2.03
2018-03-12T03:26:37.897Z,1.80
2018-03-12T03:29:05.436Z,1.97
2018-03-12T03:31:32.958Z,2.00
2018-03-12T03:34:00.504Z,1.83
2018-03-12T03:36:28.018Z,1.47
2018-03-12T03:38:55.596Z,2.33
2018-03-12T03:41:23.109Z,1.53
2018-03-12T03:43:50.638Z,1.30
2018-03-12T03:46:18.150Z,1.50
2018-03-12T03:48:46.558Z,2.00
2018-03-12T03:51:14.070Z,1.33
2018-03-12T03:53:42.380Z,1.37
2018-03-12T03:56:09.902Z,1.60
2018-03-12T03:58:37.445Z,1.57
2018-03-12T04:01:04.963Z,2.20
2018-03-12T04:03:32.512Z,1.40
2018-03-12T04:06:00.794Z,1.53
2018-03-12T04:08:28.735Z,2.00
2018-03-12T04:10:56.267Z,1.17
2018-03-12T04:13:23.781Z,1.60
2018-03-12T04:15:52.077Z,1.23
2018-03-12T04:18:19.649Z,1.43
2018-03-12T04:20:47.186Z,1.77
2018-03-12T04:23:15.466Z,1.07
2018-03-12T04:25:43.005Z,1.23
2018-03-12T04:28:11.294Z,1.30
2018-03-12T04:30:39.594Z,1.00
2018-03-12T04:33:07.116Z,1.03
2018-03-12T04:35:34.655Z,1.50
2018-03-12T04:38:02.176Z,1.67
2018-03-12T04:40:29.706Z,1.10
2018-03-12T04:42:57.991Z,1.50
2018-03-12T04:45:26.290Z,1.37
2018-03-12T04:47:53.806Z,1.50
2018-03-12T04:50:21.336Z,1.40
2018-03-12T04:52:48.886Z,1.47
2018-03-12T04:55:16.418Z,1.27
2018-03-12T04:57:44.699Z,0.90
2018-03-12T05:00:12.235Z,1.23
2018-03-12T05:02:39.851Z,1.10
2018-03-12T05:05:07.396Z,1.00
2018-03-12T05:07:34.913Z,1.10
2018-03-12T05:10:02.458Z,1.03
2018-03-12T05:12:29.983Z,1.30
2018-03-12T05:14:57.514Z,1.10
2018-03-12T05:17:25.798Z,1.33
2018-03-12T05:19:54.100Z,1.30
2018-03-12T05:22:21.616Z,1.60
2018-03-12T05:24:49.918Z,1.73
2018-03-12T05:27:18.211Z,1.60
2018-03-12T05:29:45.745Z,1.23
2018-03-12T05:32:14.027Z,1.50
2018-03-12T05:34:42.320Z,1.77
2018-03-12T05:37:09.838Z,1.17
2018-03-12T05:39:37.373Z,1.10
2018-03-12T05:42:04.888Z,0.80
2018-03-12T05:44:33.192Z,1.50
2018-03-12T05:47:00.713Z,1.40
2018-03-12T05:49:28.251Z,1.00
2018-03-12T05:51:55.765Z,0.77
2018-03-12T05:54:23.305Z,1.30
2018-03-12T05:56:51.594Z,1.03
2018-03-12T05:59:19.133Z,1.17
2018-03-12T06:01:47.415Z,1.50
2018-03-12T06:04:14.971Z,1.07
2018-03-12T06:06:42.490Z,1.00
2018-03-12T06:09:10.021Z,1.00
2018-03-12T06:11:37.553Z,0.97
2018-03-12T06:14:05.076Z,1.07
2018-03-12T06:16:32.613Z,1.80
2018-03-12T06:19:00.130Z,1.80
2018-03-12T06:21:27.667Z,2.00
2018-03-12T06:23:55.193Z,20.07
2018-03-12T06:26:22.735Z,12.00
2018-03-12T06:28:50.265Z,11.60
2018-03-12T06:31:17.801Z,8.73
2018-03-12T06:33:45.355Z,8.10
2018-03-12T06:36:12.891Z,6.60
2018-03-12T06:38:40.401Z,4.10
2018-03-12T06:41:07.944Z,4.33
2018-03-12T06:43:35.466Z,2.07
2018-03-12T06:46:03.769Z,2.10
2018-03-12T06:48:31.290Z,2.50
2018-03-12T06:50:59.576Z,1.50
2018-03-12T06:53:27.887Z,1.60
2018-03-12T06:55:55.403Z,2.23
2018-03-12T06:58:23.749Z,1.90
2018-03-12T07:00:51.241Z,1.90
2018-03-12T07:03:19.563Z,1.53
2018-03-12T07:05:47.078Z,2.60
2018-03-12T07:08:15.380Z,2.43
2018-03-12T07:10:42.893Z,3.67
2018-03-12T07:13:10.431Z,3.20
2018-03-12T07:15:37.944Z,5.67
2018-03-12T07:18:06.252Z,5.10
2018-03-12T07:20:33.770Z,3.10
2018-03-12T07:23:01.307Z,3.17
2018-03-12T07:25:28.838Z,3.63
2018-03-12T07:27:56.386Z,4.03
2018-03-12T07:30:23.907Z,3.10
2018-03-12T07:32:51.423Z,4.80
2018-03-12T07:35:18.957Z,3.30
2018-03-12T07:37:47.243Z,2.43
2018-03-12T07:40:14.783Z,3.77
2018-03-12T07:42:43.075Z,3.80
2018-03-12T07:45:10.629Z,3.60
2018-03-12T07:47:38.949Z,4.13
2018-03-12T07:50:06.480Z,3.47
2018-03-12T07:52:34.761Z,3.00
2018-03-12T07:55:02.297Z,3.50
2018-03-12T07:57:29.819Z,2.20
2018-03-12T07:59:57.349Z,3.67
2018-03-12T08:02:24.867Z,3.20
2018-03-12T08:04:52.393Z,3.23
2018-03-12T08:07:19.910Z,2.90
2018-03-12T08:09:47.469Z,4.03
2018-03-12T08:12:15.750Z,3.57
2018-03-12T08:14:44.048Z,3.57
2018-03-12T08:17:11.571Z,3.80
2018-03-12T08:19:39.111Z,4.27
2018-03-12T08:22:06.633Z,4.07
2018-03-12T08:24:34.175Z,11.97
2018-03-12T08:27:02.470Z,12.90
2018-03-12T08:29:30.021Z,15.60
2018-03-12T08:31:57.551Z,14.40
2018-03-12T08:34:25.834Z,15.00
2018-03-12T08:36:54.150Z,12.97
2018-03-12T08:39:21.666Z,13.67
2018-03-12T08:41:49.982Z,15.80
2018-03-12T08:44:17.502Z,13.83
2018-03-12T08:46:45.050Z,14.90
2018-03-12T08:49:12.590Z,13.70
2018-03-12T08:51:40.133Z,13.43
2018-03-12T08:54:07.659Z,12.47
2018-03-12T08:56:35.197Z,13.20
2018-03-12T08:59:03.547Z,12.27
2018-03-12T09:01:31.081Z,10.10
2018-03-12T09:03:59.371Z,11.60
2018-03-12T09:06:26.922Z,13.40
2018-03-12T09:08:54.439Z,11.80
2018-03-12T09:11:21.954Z,12.20
2018-03-12T09:13:49.525Z,12.37
2018-03-12T09:16:17.053Z,11.97
2018-03-12T09:18:45.356Z,12.90
2018-03-12T09:21:12.876Z,12.37
2018-03-12T09:23:40.419Z,11.63
2018-03-12T09:26:07.933Z,11.00
2018-03-12T09:28:35.467Z,12.63
2018-03-12T09:31:03.754Z,11.30
2018-03-12T09:33:32.058Z,10.60
2018-03-12T09:35:59.578Z,11.40
2018-03-12T09:38:28.629Z,10.67
2018-03-12T09:40:56.190Z,11.03
2018-03-12T09:45:58.461Z,9.50
2018-03-12T09:48:26.007Z,10.13
2018-03-12T09:50:54.298Z,10.07
2018-03-12T09:53:21.834Z,9.20
2018-03-12T09:55:49.362Z,9.83
2018-03-12T09:58:16.927Z,10.30
2018-03-12T10:00:44.439Z,8.80
2018-03-12T10:03:12.720Z,9.20
2018-03-12T10:05:40.262Z,9.30
2018-03-12T10:08:08.546Z,9.87
2018-03-12T10:10:36.845Z,9.37
2018-03-12T10:13:04.366Z,8.00
2018-03-12T10:15:31.898Z,7.20
2018-03-12T10:17:59.410Z,6.80
2018-03-12T10:20:27.702Z,8.40
2018-03-12T10:22:55.219Z,8.90
2018-03-12T10:25:22.750Z,7.80
2018-03-12T10:27:50.266Z,7.90
2018-03-12T10:30:18.571Z,7.90
2018-03-12T10:32:46.093Z,7.20
2018-03-12T10:35:14.404Z,6.50
2018-03-12T10:37:41.943Z,6.03
2018-03-12T10:40:10.265Z,6.70
2018-03-12T10:42:37.793Z,6.73
2018-03-12T10:45:05.341Z,6.10
2018-03-12T10:47:33.633Z,6.20
2018-03-12T10:50:01.923Z,6.00
2018-03-12T10:52:29.474Z,5.10
2018-03-12T10:54:56.988Z,5.80
2018-03-12T10:57:24.518Z,5.63
2018-03-12T10:59:52.082Z,6.10
2018-03-12T11:02:19.615Z,6.17
2018-03-12T11:04:52.910Z,7.50
2018-03-12T11:07:21.202Z,6.27
2018-03-12T11:09:48.713Z,6.70
2018-03-12T11:12:16.250Z,7.80
2018-03-12T11:14:43.797Z,6.30
2018-03-12T11:17:11.337Z,9.10
2018-03-12T11:19:38.850Z,6.23
2018-03-12T11:22:06.382Z,6.13
2018-03-12T11:24:33.900Z,5.97
2018-03-12T11:27:02.210Z,5.87
2018-03-12T11:29:29.727Z,6.23
2018-03-12T11:31:58.011Z,5.40
2018-03-12T11:34:26.312Z,6.67
2018-03-12T11:36:53.833Z,7.23
2018-03-12T11:39:21.446Z,6.00
2018-03-12T11:41:48.998Z,6.70
2018-03-12T11:44:16.575Z,6.17
2018-03-12T11:46:44.132Z,8.77
2018-03-12T11:49:11.674Z,7.93
2018-03-12T11:51:39.186Z,7.30
2018-03-12T11:54:06.719Z,7.57
2018-03-12T11:56:34.241Z,7.93
2018-03-12T11:59:02.542Z,6.80
2018-03-12T12:01:30.057Z,6.83
2018-03-12T12:03:57.586Z,8.27
2018-03-12T12:06:25.111Z,6.70
2018-03-12T12:08:53.418Z,6.73
2018-03-12T12:11:20.941Z,5.97
2018-03-12T12:13:49.298Z,7.47
2018-03-12T12:16:16.790Z,5.87
2018-03-12T12:18:45.092Z,5.17
2018-03-12T12:21:12.605Z,4.70
2018-03-12T12:23:40.141Z,4.10
2018-03-12T12:26:07.658Z,3.03
2018-03-12T12:28:35.231Z,3.03
2018-03-12T12:31:02.746Z,3.20
2018-03-12T12:33:30.268Z,2.40
2018-03-12T12:35:57.819Z,2.10
2018-03-12T12:38:25.334Z,1.90
2018-03-12T12:40:53.657Z,2.07
2018-03-12T12:43:21.175Z,1.77
2018-03-12T12:45:49.477Z,2.67
2018-03-12T12:48:17.054Z,2.17
2018-03-12T12:50:44.593Z,2.77
2018-03-12T12:53:12.175Z,3.50
2018-03-12T12:55:39.742Z,2.97
2018-03-12T12:58:07.258Z,3.30
2018-03-12T13:00:35.559Z,3.17
2018-03-12T13:03:03.080Z,5.30
2018-03-12T13:05:30.615Z,5.20
2018-03-12T13:07:58.158Z,6.20
2018-03-12T13:10:25.693Z,5.40
2018-03-12T13:12:53.979Z,6.20
2018-03-12T13:15:21.514Z,7.77
2018-03-12T13:17:49.794Z,7.10
2018-03-12T13:20:18.101Z,6.40
2018-03-12T13:22:45.618Z,6.23
2018-03-12T13:25:13.175Z,6.10
2018-03-12T13:27:40.699Z,6.50
2018-03-12T13:30:08.214Z,5.33
2018-03-12T13:32:36.514Z,5.10
2018-03-12T13:35:04.035Z,4.00
2018-03-12T13:37:31.573Z,4.07
2018-03-12T13:39:59.094Z,3.90
2018-03-12T13:42:26.689Z,4.37
2018-03-12T13:44:54.206Z,4.53
2018-03-12T13:47:22.522Z,5.57
2018-03-12T13:49:50.038Z,4.37
2018-03-12T13:52:18.338Z,3.10
2018-03-12T13:54:45.857Z,3.87
2018-03-12T13:57:13.394Z,4.10
2018-03-12T13:59:40.921Z,4.07
2018-03-12T14:02:08.453Z,3.87
2018-03-12T14:04:35.975Z,4.37
2018-03-12T14:07:03.511Z,4.27
2018-03-12T14:09:31.877Z,3.00
2018-03-12T14:12:00.180Z,3.43
2018-03-12T14:14:27.702Z,3.90
2018-03-12T14:16:56.006Z,3.57
2018-03-12T14:19:23.525Z,5.10
2018-03-12T14:21:52.592Z,3.70
2018-03-12T14:24:20.119Z,4.00
2018-03-12T14:26:47.642Z,3.40
2018-03-12T14:29:16.687Z,4.13
2018-03-12T14:31:44.213Z,4.00
2018-03-12T14:34:12.515Z,4.07
2018-03-12T14:36:40.045Z,3.13
2018-03-12T14:39:07.586Z,3.70
2018-03-12T14:41:35.115Z,3.80
2018-03-12T14:44:02.653Z,3.20
2018-03-12T14:46:30.235Z,3.30
2018-03-12T14:48:57.787Z,3.30
2018-03-12T14:51:25.309Z,3.37
2018-03-12T14:53:52.844Z,3.30
2018-03-12T14:56:20.362Z,3.50
2018-03-12T14:58:47.914Z,3.70
2018-03-12T15:01:16.219Z,3.13
2018-03-12T15:03:43.734Z,2.90
2018-03-12T15:06:11.279Z,3.20
2018-03-12T15:08:38.802Z,2.90
2018-03-12T15:11:06.343Z,3.20
2018-03-12T15:13:33.857Z,3.13
2018-03-12T15:16:01.487Z,2.87
2018-03-12T15:18:29.562Z,2.83
2018-03-12T15:20:57.105Z,3.87
2018-03-12T15:23:24.632Z,3.37
2018-03-12T15:25:52.170Z,2.90
2018-03-12T15:28:19.687Z,2.20
2018-03-12T15:30:47.225Z,3.47
2018-03-12T15:33:15.513Z,3.20
2018-03-12T15:35:43.067Z,3.10
2018-03-12T15:38:11.352Z,2.87
2018-03-12T15:40:39.655Z,3.10
2018-03-12T15:43:07.201Z,2.70
2018-03-12T15:45:34.718Z,2.67
2018-03-12T15:48:02.260Z,2.30
2018-03-12T15:50:29.774Z,2.70
2018-03-12T15:52:58.082Z,2.20
2018-03-12T15:55:25.600Z,2.10
2018-03-12T15:57:53.902Z,2.13
2018-03-12T16:00:21.423Z,2.10
2018-03-12T16:02:48.966Z,1.77
2018-03-12T16:05:16.484Z,3.90
2018-03-12T16:07:44.058Z,1.97
2018-03-12T16:10:11.629Z,1.90
2018-03-12T16:12:39.183Z,2.33
2018-03-12T16:15:06.699Z,1.90
2018-03-12T16:17:34.242Z,2.00
2018-03-12T16:20:01.757Z,2.00
2018-03-12T16:22:29.309Z,3.83
2018-03-12T16:24:56.828Z,2.23
2018-03-12T16:27:24.342Z,2.13
2018-03-12T16:29:51.884Z,2.47
2018-03-12T16:32:19.417Z,1.73
2018-03-12T16:34:46.958Z,1.97
2018-03-12T16:37:14.486Z,1.83
2018-03-12T16:39:42.022Z,2.17
2018-03-12T16:42:10.302Z,1.47
2018-03-12T16:44:38.609Z,2.07
2018-03-12T16:47:06.125Z,1.80
2018-03-12T16:49:34.433Z,1.80
2018-03-12T16:52:01.949Z,1.73
2018-03-12T16:54:33.292Z,2.03
2018-03-12T16:56:57.138Z,1.70
2018-03-12T16:59:24.681Z,1.70
2018-03-12T17:01:52.207Z,1.30
2018-03-12T17:04:19.754Z,1.70
2018-03-12T17:06:47.281Z,2.10
2018-03-12T17:09:14.813Z,1.00
2018-03-12T17:11:43.097Z,1.10
2018-03-12T17:14:11.399Z,1.13
2018-03-12T17:16:38.913Z,1.60
2018-03-12T17:19:06.448Z,1.50
2018-03-12T17:21:33.988Z,1.43
2018-03-12T17:24:01.527Z,1.50
2018-03-12T17:26:29.050Z,1.93
2018-03-12T17:28:56.595Z,0.90
2018-03-12T17:31:24.114Z,0.90
2018-03-12T17:33:51.752Z,0.80
2018-03-12T17:36:20.055Z,0.87
2018-03-12T17:38:47.629Z,0.90
2018-03-12T17:41:15.167Z,1.20
2018-03-12T17:43:43.448Z,1.00
2018-03-12T17:46:11.153Z,0.80
2018-03-12T17:48:38.653Z,1.23
2018-03-12T17:51:06.191Z,0.97
2018-03-12T17:53:33.711Z,1.00
2018-03-12T17:56:01.266Z,1.30
2018-03-12T17:58:28.790Z,0.80
2018-03-12T18:00:56.330Z,0.80
2018-03-12T18:03:23.874Z,0.60
2018-03-12T18:05:51.388Z,1.07
2018-03-12T18:08:19.663Z,0.73
2018-03-12T18:10:48.014Z,0.80
2018-03-12T18:13:15.496Z,0.97
2018-03-12T18:15:43.035Z,0.87
2018-03-12T18:18:10.546Z,1.20
2018-03-12T18:20:38.094Z,0.80
2018-03-12T18:23:06.371Z,1.20
2018-03-12T18:25:34.683Z,1.00
2018-03-12T18:28:02.213Z,1.17
2018-03-12T18:30:30.489Z,1.13
2018-03-12T18:32:58.794Z,1.20
2018-03-12T18:35:26.308Z,1.10
2018-03-12T18:37:53.849Z,1.40
2018-03-12T18:40:21.367Z,0.90
2018-03-12T18:42:48.900Z,1.20
2018-03-12T18:45:16.421Z,0.90
2018-03-12T18:47:43.956Z,1.40
2018-03-12T18:50:11.471Z,1.20
2018-03-12T18:52:39.014Z,1.43
2018-03-12T18:55:06.529Z,0.87
2018-03-12T18:57:34.826Z,1.30
2018-03-12T19:00:02.340Z,1.27
2018-03-12T19:02:30.640Z,1.77
2018-03-12T19:04:58.920Z,1.13
2018-03-12T19:07:27.219Z,1.20
2018-03-12T19:09:54.781Z,1.00
2018-03-12T19:12:22.287Z,1.20
2018-03-12T19:14:49.824Z,1.60
2018-03-12T19:17:17.375Z,0.90
2018-03-12T19:19:44.891Z,1.40
2018-03-12T19:22:12.431Z,1.67
2018-03-12T19:24:39.949Z,1.00
2018-03-12T19:27:07.538Z,1.20
2018-03-12T19:29:35.066Z,0.90
2018-03-12T19:32:03.347Z,1.30
2018-03-12T19:34:31.649Z,1.30
2018-03-12T19:36:59.166Z,1.33
2018-03-12T19:39:27.466Z,1.00
2018-03-12T19:41:55.746Z,2.13
2018-03-12T19:44:24.038Z,1.10
2018-03-12T19:46:51.556Z,1.33
2018-03-12T19:49:19.091Z,2.30
2018-03-12T19:51:46.608Z,2.37
2018-03-12T19:54:14.906Z,1.60
2018-03-12T19:56:42.428Z,1.23
2018-03-12T19:59:11.463Z,2.33
2018-03-12T20:01:38.983Z,2.10
2018-03-12T20:04:06.519Z,1.50
2018-03-12T20:06:34.042Z,1.40
2018-03-12T20:09:01.589Z,1.63
2018-03-12T20:11:44.750Z,1.63
2018-03-12T20:14:15.328Z,1.67
2018-03-12T20:16:43.625Z,1.30
2018-03-12T20:19:11.141Z,1.53
2018-03-12T20:21:38.683Z,2.10
2018-03-12T20:24:06.259Z,1.40
2018-03-12T20:26:33.818Z,1.63
2018-03-12T20:29:01.326Z,1.70
2018-03-12T20:31:29.630Z,1.63
2018-03-12T20:33:57.915Z,1.30
2018-03-12T20:36:26.211Z,1.03
2018-03-12T20:38:53.781Z,1.60
2018-03-12T20:41:21.313Z,1.23
2018-03-12T20:43:49.594Z,1.40
2018-03-12T20:46:17.896Z,1.70
2018-03-12T20:48:45.469Z,1.70
2018-03-12T20:51:13.004Z,1.67
2018-03-12T20:53:41.282Z,1.40
2018-03-12T20:56:09.580Z,1.73
2018-03-12T20:58:37.089Z,2.27
2018-03-12T21:01:04.805Z,1.63
2018-03-12T21:03:32.326Z,1.80
2018-03-12T21:05:59.839Z,2.03
2018-03-12T21:08:27.370Z,1.67
2018-03-12T21:10:55.646Z,1.40
2018-03-12T21:13:23.941Z,1.80
2018-03-12T21:15:51.453Z,1.83
2018-03-12T21:18:19.082Z,1.80
2018-03-12T21:20:46.596Z,1.90
2018-03-12T21:23:14.122Z,1.00
2018-03-12T21:25:41.634Z,1.87
2018-03-12T21:28:09.930Z,2.17
2018-03-12T21:30:37.458Z,1.50
2018-03-12T21:33:05.779Z,2.10
2018-03-12T21:35:33.301Z,1.40
2018-03-12T21:38:00.910Z,1.43
2018-03-12T21:40:28.424Z,1.80
2018-03-12T21:42:55.999Z,1.77
2018-03-12T21:45:23.491Z,1.50
2018-03-12T21:47:51.019Z,1.43
2018-03-12T21:50:19.299Z,1.50
2018-03-12T21:52:47.617Z,1.83
2018-03-12T21:55:15.133Z,1.70
2018-03-12T21:57:42.646Z,2.10
2018-03-12T22:00:10.179Z,1.50
2018-03-12T22:02:37.691Z,1.47
2018-03-12T22:05:05.219Z,1.33
2018-03-12T22:07:32.740Z,1.83
2018-03-12T22:10:00.274Z,1.90
2018-03-12T22:12:27.814Z,1.53
2018-03-12T22:14:55.341Z,1.80
2018-03-12T22:17:23.622Z,1.70
2018-03-12T22:19:51.917Z,3.17
2018-03-12T22:22:19.430Z,2.40
2018-03-12T22:24:48.511Z,1.60
2018-03-12T22:27:16.034Z,1.63
2018-03-12T22:29:43.550Z,1.80
2018-03-12T22:32:11.079Z,1.37
2018-03-12T22:34:38.593Z,1.30
2018-03-12T22:37:06.126Z,1.90
2018-03-12T22:39:33.642Z,1.37
2018-03-12T22:42:01.934Z,1.70
2018-03-12T22:44:29.453Z,1.30
2018-03-12T22:46:56.990Z,1.80
2018-03-12T22:49:24.509Z,1.60
2018-03-12T22:51:52.046Z,1.83
2018-03-12T22:54:19.664Z,2.43
2018-03-12T22:56:47.201Z,1.57
2018-03-12T22:59:14.713Z,1.53
2018-03-12T23:01:42.246Z,1.67
2018-03-12T23:04:09.749Z,1.67
2018-03-12T23:06:37.306Z,1.80
2018-03-12T23:09:04.825Z,2.00
2018-03-12T23:11:32.337Z,1.67
2018-03-12T23:14:01.381Z,1.53
2018-03-12T23:16:28.901Z,1.80
2018-03-12T23:18:56.434Z,1.90
2018-03-12T23:21:23.949Z,2.27
2018-03-12T23:23:52.242Z,1.80
2018-03-12T23:26:19.819Z,1.50
2018-03-12T23:28:47.377Z,2.10
2018-03-12T23:31:14.890Z,2.10
2018-03-12T23:33:43.186Z,2.27
2018-03-12T23:36:11.470Z,2.07
2018-03-12T23:38:39.774Z,2.40
2018-03-12T23:41:07.293Z,2.13
2018-03-12T23:43:34.842Z,2.20
2018-03-12T23:46:02.363Z,2.53
2018-03-12T23:48:29.879Z,2.40
2018-03-12T23:50:58.257Z,2.30
2018-03-12T23:53:25.737Z,2.90
2018-03-12T23:55:54.035Z,2.87
2018-03-12T23:58:21.550Z,2.23
